FJL852 OPQT-OPKC
Flight info
| Callsign | FJL852 |
|---|---|
| Flight time | 0h 53m |
| Altitude | 37000 |
| Route | KALAT2A KALAT J115 IDEBA N636 NH NH1C |
| Aircraft | A320/M-SDE3FGHIRWY/LB1 |
Departure
| Time | 2026-05-09 09:15 |
|---|---|
| Airport | Quetta International Airport (OPQT) |
Arrival
| Time | 2026-05-09 10:08 |
|---|---|
| Airport | Jinnah International Airport (OPKC) |
| Time | Latitude | Longitude | Altitude | Speed | Heading |
|---|---|---|---|---|---|
| 2026-05-09 09:04 | 30.24883 | 66.94717 | 5071 ft | 0 kts | 312° |
| 2026-05-09 09:12 | 30.24883 | 66.94712 | 5074 ft | 1 kts | 282° |
| 2026-05-09 09:12 | 30.24877 | 66.94703 | 5074 ft | 2 kts | 220° |
| 2026-05-09 09:13 | 30.24861 | 66.94695 | 5071 ft | 2 kts | 207° |
| 2026-05-09 09:13 | 30.24822 | 66.94659 | 5070 ft | 13 kts | 221° |
| 2026-05-09 09:13 | 30.24781 | 66.94614 | 5071 ft | 12 kts | 227° |
| 2026-05-09 09:13 | 30.24729 | 66.94549 | 5073 ft | 10 kts | 227° |
| 2026-05-09 09:14 | 30.24691 | 66.94460 | 5078 ft | 10 kts | 285° |
| 2026-05-09 09:14 | 30.24763 | 66.94363 | 5077 ft | 33 kts | 316° |
| 2026-05-09 09:14 | 30.25131 | 66.93962 | 5067 ft | 111 kts | 317° |
| 2026-05-09 09:14 | 30.25856 | 66.93166 | 5061 ft | 172 kts | 316° |
| 2026-05-09 09:15 | 30.26432 | 66.92541 | 5654 ft | 158 kts | 316° |
| 2026-05-09 09:15 | 30.27228 | 66.91732 | 6694 ft | 158 kts | 319° |
| 2026-05-09 09:15 | 30.27856 | 66.90634 | 7021 ft | 180 kts | 279° |
| 2026-05-09 09:15 | 30.27546 | 66.89152 | 7321 ft | 211 kts | 230° |
| 2026-05-09 09:16 | 30.26272 | 66.88160 | 7854 ft | 238 kts | 200° |
| 2026-05-09 09:16 | 30.22673 | 66.87291 | 9020 ft | 287 kts | 190° |
| 2026-05-09 09:16 | 30.20650 | 66.86931 | 9898 ft | 298 kts | 190° |
| 2026-05-09 09:17 | 30.18564 | 66.86532 | 10482 ft | 320 kts | 192° |
| 2026-05-09 09:17 | 30.16286 | 66.86048 | 10995 ft | 345 kts | 192° |
| 2026-05-09 09:17 | 30.13848 | 66.85486 | 11364 ft | 370 kts | 193° |
| 2026-05-09 09:17 | 30.11259 | 66.84858 | 11915 ft | 383 kts | 193° |
| 2026-05-09 09:18 | 30.08627 | 66.84206 | 12690 ft | 391 kts | 193° |
| 2026-05-09 09:18 | 30.05948 | 66.83532 | 13587 ft | 397 kts | 194° |
| 2026-05-09 09:18 | 30.03226 | 66.82847 | 14439 ft | 402 kts | 193° |
| 2026-05-09 09:18 | 30.00482 | 66.82161 | 15224 ft | 405 kts | 193° |
| 2026-05-09 09:19 | 29.97712 | 66.81473 | 15963 ft | 407 kts | 193° |
| 2026-05-09 09:19 | 29.94965 | 66.80794 | 16630 ft | 410 kts | 193° |
| 2026-05-09 09:19 | 29.92156 | 66.80102 | 17268 ft | 413 kts | 193° |
| 2026-05-09 09:19 | 29.89336 | 66.79410 | 17924 ft | 414 kts | 193° |
| 2026-05-09 09:20 | 29.86513 | 66.78729 | 18482 ft | 416 kts | 191° |
| 2026-05-09 09:20 | 29.83603 | 66.78590 | 18958 ft | 422 kts | 175° |
| 2026-05-09 09:20 | 29.80751 | 66.79411 | 19382 ft | 428 kts | 160° |
| 2026-05-09 09:20 | 29.77964 | 66.80662 | 19775 ft | 431 kts | 159° |
| 2026-05-09 09:21 | 29.75176 | 66.81945 | 20169 ft | 433 kts | 159° |
| 2026-05-09 09:21 | 29.72364 | 66.83252 | 20566 ft | 435 kts | 159° |
| 2026-05-09 09:21 | 29.69554 | 66.84561 | 20917 ft | 438 kts | 159° |
| 2026-05-09 09:21 | 29.66716 | 66.85879 | 21288 ft | 441 kts | 159° |
| 2026-05-09 09:22 | 29.63858 | 66.87196 | 21642 ft | 444 kts | 159° |
| 2026-05-09 09:22 | 29.61007 | 66.88503 | 21991 ft | 447 kts | 159° |
| 2026-05-09 09:22 | 29.58110 | 66.89827 | 22335 ft | 450 kts | 159° |
| 2026-05-09 09:22 | 29.55186 | 66.91159 | 22655 ft | 453 kts | 160° |
| 2026-05-09 09:23 | 29.52238 | 66.92501 | 22995 ft | 456 kts | 160° |
| 2026-05-09 09:23 | 29.49273 | 66.93852 | 23332 ft | 459 kts | 160° |
| 2026-05-09 09:23 | 29.46297 | 66.95209 | 23629 ft | 461 kts | 160° |
| 2026-05-09 09:23 | 29.43290 | 66.96580 | 23890 ft | 464 kts | 159° |
| 2026-05-09 09:24 | 29.40289 | 66.97949 | 24169 ft | 466 kts | 159° |
| 2026-05-09 09:24 | 29.37268 | 66.99327 | 24443 ft | 468 kts | 159° |
| 2026-05-09 09:24 | 29.34273 | 67.00694 | 24714 ft | 470 kts | 159° |
| 2026-05-09 09:24 | 29.31225 | 67.02083 | 24988 ft | 472 kts | 160° |
| 2026-05-09 09:25 | 29.28156 | 67.03479 | 25239 ft | 474 kts | 160° |
| 2026-05-09 09:25 | 29.25119 | 67.04858 | 25502 ft | 476 kts | 160° |
| 2026-05-09 09:25 | 29.22030 | 67.06262 | 25761 ft | 478 kts | 160° |
| 2026-05-09 09:25 | 29.18967 | 67.07651 | 26027 ft | 480 kts | 160° |
| 2026-05-09 09:26 | 29.15847 | 67.09064 | 26289 ft | 482 kts | 160° |
| 2026-05-09 09:26 | 29.12729 | 67.10474 | 26515 ft | 484 kts | 160° |
| 2026-05-09 09:26 | 29.09579 | 67.11898 | 26756 ft | 486 kts | 160° |
| 2026-05-09 09:26 | 29.06432 | 67.13324 | 27007 ft | 487 kts | 160° |
| 2026-05-09 09:27 | 29.03273 | 67.14754 | 27247 ft | 489 kts | 160° |
| 2026-05-09 09:27 | 29.00086 | 67.16194 | 27439 ft | 491 kts | 160° |
| 2026-05-09 09:27 | 28.96939 | 67.17615 | 27678 ft | 493 kts | 160° |
| 2026-05-09 09:27 | 28.93745 | 67.19055 | 27916 ft | 494 kts | 160° |
| 2026-05-09 09:28 | 28.90577 | 67.20485 | 28285 ft | 493 kts | 160° |
| 2026-05-09 09:28 | 28.87418 | 67.21911 | 28642 ft | 492 kts | 160° |
| 2026-05-09 09:28 | 28.84235 | 67.23346 | 28910 ft | 493 kts | 160° |
| 2026-05-09 09:28 | 28.81039 | 67.24786 | 29205 ft | 493 kts | 160° |
| 2026-05-09 09:29 | 28.77842 | 67.26223 | 29535 ft | 493 kts | 160° |
| 2026-05-09 09:29 | 28.74649 | 67.27658 | 29866 ft | 493 kts | 160° |
| 2026-05-09 09:29 | 28.71457 | 67.29093 | 30102 ft | 493 kts | 160° |
| 2026-05-09 09:29 | 28.68263 | 67.30526 | 30379 ft | 492 kts | 160° |
| 2026-05-09 09:30 | 28.65086 | 67.31949 | 30677 ft | 491 kts | 160° |
| 2026-05-09 09:30 | 28.61900 | 67.33390 | 30961 ft | 491 kts | 160° |
| 2026-05-09 09:30 | 28.58730 | 67.34834 | 31236 ft | 491 kts | 160° |
| 2026-05-09 09:30 | 28.55600 | 67.36267 | 31511 ft | 490 kts | 160° |
| 2026-05-09 09:31 | 28.52416 | 67.37733 | 31786 ft | 490 kts | 160° |
| 2026-05-09 09:31 | 28.49254 | 67.39196 | 32068 ft | 490 kts | 160° |
| 2026-05-09 09:31 | 28.46088 | 67.40668 | 32347 ft | 490 kts | 160° |
| 2026-05-09 09:32 | 28.39769 | 67.43627 | 32721 ft | 490 kts | 160° |
| 2026-05-09 09:32 | 28.33504 | 67.46573 | 32745 ft | 490 kts | 160° |
| 2026-05-09 09:33 | 28.27203 | 67.49538 | 32741 ft | 489 kts | 160° |
| 2026-05-09 09:33 | 28.20889 | 67.52508 | 32747 ft | 489 kts | 160° |
| 2026-05-09 09:34 | 28.14635 | 67.55447 | 32728 ft | 490 kts | 160° |
| 2026-05-09 09:34 | 28.08299 | 67.58364 | 32709 ft | 491 kts | 161° |
| 2026-05-09 09:36 | 27.82756 | 67.69468 | 32702 ft | 493 kts | 161° |
| 2026-05-09 09:37 | 27.76352 | 67.72269 | 32706 ft | 493 kts | 161° |
| 2026-05-09 09:37 | 27.69929 | 67.75054 | 32706 ft | 493 kts | 161° |
| 2026-05-09 09:38 | 27.63548 | 67.77809 | 32698 ft | 493 kts | 161° |
| 2026-05-09 09:38 | 27.57134 | 67.80591 | 32699 ft | 493 kts | 161° |
| 2026-05-09 09:39 | 27.50751 | 67.83365 | 32705 ft | 493 kts | 161° |
| 2026-05-09 09:39 | 27.44353 | 67.86144 | 32704 ft | 493 kts | 161° |
| 2026-05-09 09:40 | 27.37938 | 67.88912 | 32702 ft | 492 kts | 162° |
| 2026-05-09 09:40 | 27.31536 | 67.91676 | 32704 ft | 492 kts | 161° |
| 2026-05-09 09:41 | 27.25180 | 67.94416 | 32708 ft | 492 kts | 162° |
| 2026-05-09 09:41 | 27.18768 | 67.97161 | 32709 ft | 492 kts | 162° |
| 2026-05-09 09:42 | 27.12366 | 67.99909 | 32705 ft | 492 kts | 162° |
| 2026-05-09 09:42 | 27.05972 | 68.02662 | 32714 ft | 491 kts | 162° |
| 2026-05-09 09:43 | 26.99613 | 68.05396 | 32712 ft | 491 kts | 162° |
| 2026-05-09 09:43 | 26.93208 | 68.08138 | 32712 ft | 491 kts | 162° |
| 2026-05-09 09:44 | 26.86817 | 68.10870 | 32706 ft | 491 kts | 162° |
| 2026-05-09 09:44 | 26.80462 | 68.13583 | 32713 ft | 491 kts | 162° |
| 2026-05-09 09:45 | 26.74069 | 68.16311 | 32716 ft | 490 kts | 162° |
| 2026-05-09 09:45 | 26.67717 | 68.19020 | 32723 ft | 490 kts | 162° |
| 2026-05-09 09:46 | 26.61314 | 68.21747 | 32716 ft | 491 kts | 162° |
| 2026-05-09 09:46 | 26.54950 | 68.24449 | 32712 ft | 491 kts | 162° |
| 2026-05-09 09:47 | 26.48538 | 68.27166 | 32713 ft | 492 kts | 162° |
| 2026-05-09 09:47 | 26.42129 | 68.29885 | 32714 ft | 492 kts | 162° |
| 2026-05-09 09:48 | 26.35756 | 68.32593 | 32709 ft | 492 kts | 162° |
| 2026-05-09 09:48 | 26.29328 | 68.35236 | 32713 ft | 489 kts | 167° |
| 2026-05-09 09:48 | 26.26008 | 68.35948 | 32714 ft | 484 kts | 178° |
| 2026-05-09 09:49 | 26.22655 | 68.35978 | 32720 ft | 478 kts | 189° |
| 2026-05-09 09:49 | 26.16371 | 68.34119 | 32717 ft | 466 kts | 209° |
| 2026-05-09 09:50 | 26.10922 | 68.30301 | 32712 ft | 461 kts | 218° |
| 2026-05-09 09:50 | 26.05626 | 68.26249 | 32631 ft | 462 kts | 218° |
| 2026-05-09 09:50 | 26.02959 | 68.24217 | 31626 ft | 468 kts | 218° |
| 2026-05-09 09:51 | 26.00243 | 68.22147 | 30446 ft | 478 kts | 217° |
| 2026-05-09 09:51 | 25.97482 | 68.20041 | 29197 ft | 487 kts | 217° |
| 2026-05-09 09:51 | 25.94660 | 68.17891 | 27875 ft | 495 kts | 217° |
| 2026-05-09 09:51 | 25.91803 | 68.15714 | 26698 ft | 499 kts | 217° |
| 2026-05-09 09:52 | 25.88960 | 68.13545 | 25452 ft | 505 kts | 216° |
| 2026-05-09 09:52 | 25.86052 | 68.11330 | 24354 ft | 508 kts | 216° |
| 2026-05-09 09:52 | 25.83142 | 68.09118 | 23500 ft | 505 kts | 216° |
| 2026-05-09 09:52 | 25.80245 | 68.06918 | 22525 ft | 502 kts | 216° |
| 2026-05-09 09:53 | 25.77375 | 68.04736 | 21717 ft | 496 kts | 216° |
| 2026-05-09 09:53 | 25.74532 | 68.02577 | 20920 ft | 491 kts | 215° |
| 2026-05-09 09:53 | 25.71717 | 68.00438 | 20144 ft | 487 kts | 214° |
| 2026-05-09 09:53 | 25.68961 | 67.98347 | 19397 ft | 483 kts | 214° |
| 2026-05-09 09:54 | 25.66198 | 67.96252 | 18663 ft | 480 kts | 214° |
| 2026-05-09 09:54 | 25.63449 | 67.94173 | 17927 ft | 476 kts | 214° |
| 2026-05-09 09:54 | 25.60718 | 67.92110 | 17245 ft | 471 kts | 213° |
| 2026-05-09 09:54 | 25.58028 | 67.90074 | 16568 ft | 465 kts | 214° |
| 2026-05-09 09:55 | 25.55393 | 67.88078 | 15941 ft | 459 kts | 214° |
| 2026-05-09 09:55 | 25.52772 | 67.86094 | 15345 ft | 453 kts | 214° |
| 2026-05-09 09:55 | 25.50186 | 67.84135 | 14746 ft | 447 kts | 214° |
| 2026-05-09 09:55 | 25.47633 | 67.82202 | 14167 ft | 441 kts | 214° |
| 2026-05-09 09:56 | 25.45963 | 67.80939 | 13768 ft | 438 kts | 214° |
| 2026-05-09 09:56 | 25.42605 | 67.78407 | 12902 ft | 432 kts | 214° |
| 2026-05-09 09:56 | 25.40955 | 67.77167 | 12470 ft | 429 kts | 214° |
| 2026-05-09 09:56 | 25.37706 | 67.74729 | 11585 ft | 423 kts | 214° |
| 2026-05-09 09:57 | 25.36056 | 67.73487 | 11130 ft | 421 kts | 214° |
| 2026-05-09 09:57 | 25.33662 | 67.71684 | 10794 ft | 408 kts | 214° |
| 2026-05-09 09:57 | 25.31367 | 67.69954 | 10671 ft | 390 kts | 214° |
| 2026-05-09 09:57 | 25.29200 | 67.68318 | 10557 ft | 374 kts | 214° |
| 2026-05-09 09:58 | 25.27096 | 67.66733 | 10453 ft | 358 kts | 214° |
| 2026-05-09 09:58 | 25.25078 | 67.65213 | 10337 ft | 345 kts | 215° |
| 2026-05-09 09:58 | 25.23128 | 67.63746 | 10219 ft | 333 kts | 215° |
| 2026-05-09 09:58 | 25.21243 | 67.62332 | 10108 ft | 321 kts | 215° |
| 2026-05-09 09:59 | 25.19426 | 67.60969 | 9954 ft | 312 kts | 215° |
| 2026-05-09 09:59 | 25.17652 | 67.59638 | 9629 ft | 310 kts | 216° |
| 2026-05-09 09:59 | 25.15878 | 67.58303 | 9228 ft | 305 kts | 215° |
| 2026-05-09 09:59 | 25.14136 | 67.56994 | 8643 ft | 300 kts | 214° |
| 2026-05-09 10:00 | 25.12424 | 67.55709 | 8040 ft | 296 kts | 215° |
| 2026-05-09 10:00 | 25.10752 | 67.54454 | 7476 ft | 291 kts | 214° |
| 2026-05-09 10:00 | 25.09068 | 67.53192 | 6911 ft | 286 kts | 214° |
| 2026-05-09 10:00 | 25.07449 | 67.51979 | 6209 ft | 286 kts | 213° |
| 2026-05-09 10:01 | 25.05804 | 67.50748 | 5502 ft | 286 kts | 213° |
| 2026-05-09 10:01 | 25.04175 | 67.49529 | 5018 ft | 277 kts | 214° |
| 2026-05-09 10:01 | 25.02604 | 67.48351 | 4636 ft | 268 kts | 214° |
| 2026-05-09 10:01 | 25.01065 | 67.47198 | 4212 ft | 264 kts | 214° |
| 2026-05-09 10:02 | 24.99590 | 67.46094 | 3778 ft | 254 kts | 214° |
| 2026-05-09 10:02 | 24.98255 | 67.44899 | 3448 ft | 240 kts | 235° |
| 2026-05-09 10:02 | 24.97610 | 67.43282 | 3154 ft | 225 kts | 255° |
| 2026-05-09 10:02 | 24.97222 | 67.41641 | 2970 ft | 216 kts | 256° |
| 2026-05-09 10:03 | 24.96855 | 67.40115 | 2988 ft | 204 kts | 256° |
| 2026-05-09 10:03 | 24.96490 | 67.38646 | 2999 ft | 194 kts | 256° |
| 2026-05-09 10:03 | 24.96133 | 67.37225 | 2997 ft | 191 kts | 256° |
| 2026-05-09 10:03 | 24.95782 | 67.35827 | 3000 ft | 192 kts | 256° |
| 2026-05-09 10:04 | 24.95424 | 67.34400 | 2956 ft | 188 kts | 257° |
| 2026-05-09 10:04 | 24.95079 | 67.33031 | 2762 ft | 181 kts | 255° |
| 2026-05-09 10:04 | 24.94748 | 67.31714 | 2560 ft | 174 kts | 257° |
| 2026-05-09 10:04 | 24.94429 | 67.30449 | 2337 ft | 168 kts | 256° |
| 2026-05-09 10:05 | 24.94132 | 67.29269 | 2130 ft | 156 kts | 255° |
| 2026-05-09 10:05 | 24.93850 | 67.28145 | 1963 ft | 148 kts | 254° |
| 2026-05-09 10:05 | 24.93578 | 67.27065 | 1766 ft | 144 kts | 254° |
| 2026-05-09 10:05 | 24.93315 | 67.26023 | 1589 ft | 139 kts | 255° |
| 2026-05-09 10:06 | 24.93056 | 67.24997 | 1407 ft | 138 kts | 256° |
| 2026-05-09 10:06 | 24.92799 | 67.23975 | 1244 ft | 137 kts | 253° |
| 2026-05-09 10:06 | 24.92537 | 67.22939 | 1063 ft | 139 kts | 252° |
| 2026-05-09 10:06 | 24.92284 | 67.21933 | 895 ft | 139 kts | 256° |
| 2026-05-09 10:07 | 24.92024 | 67.20904 | 727 ft | 136 kts | 256° |
| 2026-05-09 10:07 | 24.91769 | 67.19894 | 544 ft | 136 kts | 252° |
| 2026-05-09 10:07 | 24.91515 | 67.18890 | 357 ft | 137 kts | 252° |
| 2026-05-09 10:07 | 24.91264 | 67.17894 | 177 ft | 136 kts | 252° |
| 2026-05-09 10:08 | 24.91013 | 67.16946 | 106 ft | 120 kts | 250° |
| 2026-05-09 10:08 | 24.90839 | 67.16218 | 102 ft | 72 kts | 255° |
| 2026-05-09 10:08 | 24.90757 | 67.15883 | 104 ft | 26 kts | 249° |
| 2026-05-09 10:08 | 24.90734 | 67.15836 | 104 ft | 0 kts | 242° |
| 2026-05-09 10:09 | 24.90714 | 67.15798 | 105 ft | 7 kts | 237° |
| 2026-05-09 10:09 | 24.90681 | 67.15749 | 105 ft | 9 kts | 229° |
| 2026-05-09 10:09 | 24.90618 | 67.15717 | 105 ft | 12 kts | 193° |
| 2026-05-09 10:10 | 24.90523 | 67.15717 | 104 ft | 15 kts | 168° |
| 2026-05-09 10:10 | 24.90413 | 67.15750 | 104 ft | 18 kts | 166° |
| 2026-05-09 10:10 | 24.90283 | 67.15792 | 102 ft | 20 kts | 151° |
| 2026-05-09 10:10 | 24.90268 | 67.15859 | 101 ft | 0 kts | 63° |
| 2026-05-09 10:11 | 24.90271 | 67.15876 | 102 ft | 8 kts | 75° |
| 2026-05-09 10:11 | 24.90301 | 67.16011 | 102 ft | 20 kts | 75° |
| 2026-05-09 10:11 | 24.90336 | 67.16152 | 102 ft | 19 kts | 75° |
| 2026-05-09 10:11 | 24.90373 | 67.16283 | 101 ft | 17 kts | 74° |
| 2026-05-09 10:12 | 24.90402 | 67.16401 | 102 ft | 15 kts | 76° |
| 2026-05-09 10:12 | 24.90427 | 67.16504 | 102 ft | 2 kts | 74° |
| 2026-05-09 10:12 | 24.90428 | 67.16508 | 102 ft | 1 kts | 74° |
| 2026-05-09 10:12 | 24.90434 | 67.16530 | 102 ft | 5 kts | 74° |
| 2026-05-09 10:13 | 24.90448 | 67.16587 | 102 ft | 10 kts | 75° |
| 2026-05-09 10:13 | 24.90462 | 67.16656 | 102 ft | 8 kts | 87° |
| 2026-05-09 10:13 | 24.90429 | 67.16696 | 101 ft | 7 kts | 160° |
| 2026-05-09 10:13 | 24.90389 | 67.16715 | 101 ft | 6 kts | 155° |
| 2026-05-09 10:14 | 24.90367 | 67.16697 | 101 ft | 5 kts | 241° |
| 2026-05-09 10:14 | 24.90353 | 67.16657 | 101 ft | 7 kts | 257° |
| 2026-05-09 10:14 | 24.90339 | 67.16598 | 101 ft | 9 kts | 254° |
| 2026-05-09 10:14 | 24.90322 | 67.16523 | 100 ft | 11 kts | 254° |
| 2026-05-09 10:15 | 24.90296 | 67.16435 | 101 ft | 13 kts | 247° |
| 2026-05-09 10:15 | 24.90218 | 67.16398 | 100 ft | 14 kts | 171° |
| 2026-05-09 10:15 | 24.90145 | 67.16453 | 101 ft | 12 kts | 78° |
| 2026-05-09 10:15 | 24.90150 | 67.16473 | 101 ft | 3 kts | 89° |
| 2026-05-09 10:16 | 24.90150 | 67.16494 | 101 ft | 2 kts | 89° |
| 2026-05-09 10:16 | 24.90150 | 67.16510 | 101 ft | 2 kts | 87° |
| 2026-05-09 10:16 | 24.90151 | 67.16521 | 101 ft | 1 kts | 86° |
| 2026-05-09 10:16 | 24.90151 | 67.16523 | 101 ft | 0 kts | 86° |